createdAt,value
2023-02-25T00:01:38.502Z,2.00
2023-02-25T00:04:05.147Z,1.43
2023-02-25T00:06:31.832Z,1.50
2023-02-25T00:08:58.928Z,1.67
2023-02-25T00:11:28.070Z,1.00
2023-02-25T00:13:55.775Z,1.40
2023-02-25T00:16:25.131Z,1.50
2023-02-25T00:18:56.749Z,1.13
2023-02-25T00:21:24.405Z,1.33
2023-02-25T00:23:52.591Z,1.30
2023-02-25T00:26:20.324Z,1.13
2023-02-25T00:28:49.526Z,1.23
2023-02-25T00:31:19.427Z,1.50
2023-02-25T00:33:46.568Z,1.33
2023-02-25T00:36:20.710Z,1.40
2023-02-25T00:38:49.898Z,1.50
2023-02-25T00:41:19.168Z,0.97
2023-02-25T00:43:51.383Z,1.27
2023-02-25T00:46:19.228Z,1.40
2023-02-25T00:48:46.556Z,1.73
2023-02-25T00:51:16.162Z,1.00
2023-02-25T00:53:42.858Z,1.20
2023-02-25T00:56:12.379Z,1.03
2023-02-25T00:58:39.415Z,1.20
2023-02-25T01:01:15.093Z,1.47
2023-02-25T01:03:42.110Z,1.40
2023-02-25T01:06:10.176Z,1.40
2023-02-25T01:08:38.117Z,1.20
2023-02-25T01:11:16.694Z,1.20
2023-02-25T01:13:43.748Z,1.30
2023-02-25T01:16:13.077Z,0.97
2023-02-25T01:18:40.437Z,1.57
2023-02-25T01:21:07.747Z,1.60
2023-02-25T01:23:34.536Z,0.93
2023-02-25T01:26:03.993Z,0.90
2023-02-25T01:28:31.023Z,1.03
2023-02-25T01:30:58.004Z,1.30
2023-02-25T01:33:24.735Z,1.33
2023-02-25T01:35:51.557Z,1.40
2023-02-25T01:38:18.778Z,1.57
2023-02-25T01:40:45.343Z,1.00
2023-02-25T01:43:16.192Z,1.00
2023-02-25T01:45:45.060Z,0.90
2023-02-25T01:48:22.482Z,1.20
2023-02-25T01:50:58.143Z,1.27
2023-02-25T01:53:30.692Z,1.10
2023-02-25T01:56:02.851Z,1.37
2023-02-25T01:58:30.238Z,1.80
2023-02-25T02:00:57.608Z,1.20
2023-02-25T02:03:28.290Z,1.07
2023-02-25T02:06:18.659Z,1.30
2023-02-25T02:08:46.346Z,0.77
2023-02-25T02:11:13.952Z,0.93
2023-02-25T02:13:45.229Z,0.60
2023-02-25T02:16:17.874Z,0.63
2023-02-25T02:18:50.509Z,0.90
2023-02-25T02:21:22.846Z,2.00
2023-02-25T02:24:11.534Z,1.40
2023-02-25T02:27:07.731Z,0.93
2023-02-25T02:30:08.794Z,0.93
2023-02-25T02:32:40.066Z,0.80
2023-02-25T02:35:48.545Z,0.80
2023-02-25T02:38:28.360Z,1.30
2023-02-25T02:41:07.225Z,0.90
2023-02-25T02:43:44.692Z,0.93
2023-02-25T02:46:24.364Z,1.00
2023-02-25T02:49:06.251Z,1.07
2023-02-25T02:51:45.179Z,1.07
2023-02-25T02:54:14.863Z,1.10
2023-02-25T02:56:44.549Z,0.80
2023-02-25T02:59:28.219Z,0.93
2023-02-25T03:02:11.064Z,0.97
2023-02-25T03:04:41.354Z,1.00
2023-02-25T03:07:11.313Z,1.10
2023-02-25T03:09:53.634Z,1.27
2023-02-25T03:15:04.953Z,0.80
2023-02-25T03:17:39.922Z,0.57
2023-02-25T03:20:21.946Z,0.80
2023-02-25T03:22:50.265Z,1.20
2023-02-25T03:25:47.565Z,0.90
2023-02-25T03:28:30.891Z,0.90
2023-02-25T03:31:13.600Z,0.90
2023-02-25T03:33:48.914Z,0.70
2023-02-25T03:36:32.914Z,0.80
2023-02-25T03:39:06.773Z,0.80
2023-02-25T03:41:39.042Z,0.90
2023-02-25T03:44:11.538Z,1.10
2023-02-25T03:46:41.976Z,0.63
2023-02-25T03:49:12.150Z,0.60
2023-02-25T03:51:41.424Z,0.60
2023-02-25T03:54:11.764Z,0.60
2023-02-25T03:56:47.118Z,0.60
2023-02-25T03:59:14.549Z,0.60
2023-02-25T04:01:44.116Z,0.90
2023-02-25T04:04:11.543Z,0.80
2023-02-25T04:06:38.518Z,0.50
2023-02-25T04:09:06.073Z,0.50
2023-02-25T04:11:34.371Z,0.50
2023-02-25T04:14:01.019Z,0.50
2023-02-25T04:16:27.907Z,0.60
2023-02-25T04:18:54.528Z,0.50
2023-02-25T04:21:33.097Z,0.40
2023-02-25T04:23:59.981Z,0.57
2023-02-25T04:26:27.270Z,0.70
2023-02-25T04:28:54.135Z,0.70
2023-02-25T04:31:25.812Z,0.60
2023-02-25T04:33:53.650Z,0.67
2023-02-25T04:36:23.608Z,0.33
2023-02-25T04:38:50.676Z,0.50
2023-02-25T04:41:20.383Z,0.60
2023-02-25T04:43:47.326Z,0.60
2023-02-25T04:46:14.959Z,0.50
2023-02-25T04:48:41.752Z,0.83
2023-02-25T04:51:08.547Z,0.90
2023-02-25T04:53:37.024Z,0.60
2023-02-25T04:56:05.634Z,0.70
2023-02-25T04:58:34.079Z,0.87
2023-02-25T05:01:02.608Z,0.60
2023-02-25T05:03:30.429Z,0.60
2023-02-25T05:05:57.781Z,0.60
2023-02-25T05:08:24.781Z,0.70
2023-02-25T05:10:52.206Z,0.87
2023-02-25T05:13:19.986Z,0.90
2023-02-25T05:15:46.875Z,0.90
2023-02-25T05:18:13.865Z,0.60
2023-02-25T05:20:46.562Z,0.60
2023-02-25T05:23:13.994Z,0.63
2023-02-25T05:25:41.791Z,0.70
2023-02-25T05:28:12.013Z,0.60
2023-02-25T05:30:39.351Z,0.60
2023-02-25T05:33:07.030Z,1.83
2023-02-25T05:35:33.791Z,0.80
2023-02-25T05:38:00.942Z,0.47
2023-02-25T05:40:27.752Z,0.60
2023-02-25T05:42:54.479Z,0.60
2023-02-25T05:45:21.124Z,0.63
2023-02-25T05:47:47.988Z,0.70
2023-02-25T05:50:14.665Z,0.67
2023-02-25T05:52:42.257Z,0.60
2023-02-25T05:55:09.466Z,0.60
2023-02-25T05:57:36.321Z,0.93
2023-02-25T06:00:09.847Z,0.43
2023-02-25T06:02:40.796Z,0.40
2023-02-25T06:05:08.408Z,0.40
2023-02-25T06:07:35.048Z,0.50
2023-02-25T06:10:02.170Z,0.57
2023-02-25T06:12:31.407Z,0.50
2023-02-25T06:14:58.145Z,0.40
2023-02-25T06:17:25.010Z,0.50
2023-02-25T06:19:52.692Z,1.00
2023-02-25T06:22:20.528Z,0.80
2023-02-25T06:24:47.765Z,0.43
2023-02-25T06:27:15.469Z,0.87
2023-02-25T06:29:42.250Z,0.40
2023-02-25T06:32:10.166Z,0.70
2023-02-25T06:34:37.396Z,0.50
2023-02-25T06:37:04.395Z,0.60
2023-02-25T06:39:31.122Z,0.40
2023-02-25T06:41:57.913Z,0.50
2023-02-25T06:44:25.122Z,0.50
2023-02-25T06:46:52.236Z,0.73
2023-02-25T06:49:19.422Z,0.70
2023-02-25T06:51:46.323Z,0.50
2023-02-25T06:54:12.941Z,0.60
2023-02-25T06:56:39.519Z,0.60
2023-02-25T06:59:06.398Z,0.50
2023-02-25T07:01:33.176Z,0.50
2023-02-25T07:04:00.028Z,0.47
2023-02-25T07:06:26.728Z,0.60
2023-02-25T07:08:53.382Z,0.77
2023-02-25T07:11:21.478Z,1.13
2023-02-25T07:13:49.381Z,0.60
2023-02-25T07:16:20.445Z,0.60
2023-02-25T07:18:47.956Z,1.27
2023-02-25T07:21:15.952Z,0.60
2023-02-25T07:23:43.431Z,0.53
2023-02-25T07:26:12.759Z,0.63
2023-02-25T07:28:40.053Z,0.40
2023-02-25T07:31:19.702Z,0.70
2023-02-25T07:33:47.883Z,0.77
2023-02-25T07:36:15.427Z,0.83
2023-02-25T07:38:42.415Z,0.60
2023-02-25T07:41:11.942Z,0.70
2023-02-25T07:43:38.926Z,1.07
2023-02-25T07:46:09.476Z,1.30
2023-02-25T07:48:36.617Z,0.77
2023-02-25T07:51:09.245Z,0.70
2023-02-25T07:53:36.070Z,0.83
2023-02-25T07:56:03.041Z,0.60
2023-02-25T07:58:29.656Z,1.07
2023-02-25T08:00:56.336Z,0.50
2023-02-25T08:03:22.941Z,0.67
2023-02-25T08:05:54.270Z,0.60
2023-02-25T08:08:21.853Z,0.80
2023-02-25T08:10:48.828Z,0.53
2023-02-25T08:13:16.079Z,0.70
2023-02-25T08:15:46.659Z,0.60
2023-02-25T08:18:13.545Z,0.60
2023-02-25T08:20:45.370Z,0.57
2023-02-25T08:23:13.460Z,0.90
2023-02-25T08:25:40.749Z,0.40
2023-02-25T08:28:07.424Z,0.87
2023-02-25T08:30:34.144Z,0.60
2023-02-25T08:33:04.701Z,0.60
2023-02-25T08:35:41.244Z,0.50
2023-02-25T08:38:09.237Z,0.70
2023-02-25T08:40:36.249Z,1.10
2023-02-25T08:43:02.904Z,0.50
2023-02-25T08:45:30.227Z,0.40
2023-02-25T08:47:57.045Z,0.50
2023-02-25T08:50:26.611Z,0.47
2023-02-25T08:52:53.746Z,0.63
2023-02-25T08:55:22.426Z,0.80
2023-02-25T08:57:49.009Z,0.60
2023-02-25T09:00:16.709Z,0.90
2023-02-25T09:02:45.064Z,0.50
2023-02-25T09:05:11.669Z,0.50
2023-02-25T09:07:38.311Z,0.40
2023-02-25T09:10:10.069Z,0.57
2023-02-25T09:12:38.189Z,0.40
2023-02-25T09:15:05.766Z,0.50
2023-02-25T09:17:32.899Z,0.40
2023-02-25T09:20:01.262Z,0.40
2023-02-25T09:22:28.621Z,0.43
2023-02-25T09:24:55.944Z,0.73
2023-02-25T09:27:22.529Z,0.30
2023-02-25T09:29:49.241Z,0.40
2023-02-25T09:32:19.754Z,0.50
2023-02-25T09:34:49.017Z,0.32
2023-02-25T09:37:16.804Z,0.22
2023-02-25T09:39:43.444Z,0.22
2023-02-25T09:42:16.422Z,0.40
2023-02-25T09:44:53.172Z,0.30
2023-02-25T09:47:38.700Z,0.40
2023-02-25T09:50:07.310Z,0.50
2023-02-25T09:52:38.872Z,0.50
2023-02-25T09:55:38.371Z,0.38
2023-02-25T09:58:30.391Z,0.40
2023-02-25T10:01:26.908Z,0.40
2023-02-25T10:04:03.552Z,0.50
2023-02-25T10:06:44.124Z,0.20
2023-02-25T10:09:43.538Z,0.40
2023-02-25T10:12:41.599Z,0.50
2023-02-25T10:15:36.957Z,0.40
2023-02-25T10:18:25.585Z,0.30
2023-02-25T10:21:23.931Z,0.25
2023-02-25T10:24:09.411Z,0.40
2023-02-25T10:26:45.306Z,0.50
2023-02-25T10:29:34.057Z,0.50
2023-02-25T10:32:16.509Z,0.80
2023-02-25T10:34:44.207Z,0.30
2023-02-25T10:37:28.678Z,0.40
2023-02-25T10:39:59.200Z,0.40
2023-02-25T10:42:26.843Z,0.25
2023-02-25T10:44:55.184Z,0.47
2023-02-25T10:47:38.468Z,0.40
2023-02-25T10:52:56.378Z,0.38
2023-02-25T10:55:44.198Z,0.70
2023-02-25T10:58:37.936Z,0.50
2023-02-25T11:01:13.962Z,0.30
2023-02-25T11:04:00.697Z,0.40
2023-02-25T11:06:35.287Z,0.30
2023-02-25T11:09:23.220Z,0.30
2023-02-25T11:12:08.542Z,0.38
2023-02-25T11:14:37.409Z,0.28
2023-02-25T11:17:12.442Z,0.82
2023-02-25T11:19:44.367Z,0.40
2023-02-25T11:22:23.495Z,0.60
2023-02-25T11:25:17.679Z,0.40
2023-02-25T11:27:50.098Z,0.50
2023-02-25T11:30:30.868Z,0.73
2023-02-25T11:32:58.250Z,0.47
2023-02-25T11:35:30.844Z,0.40
2023-02-25T11:37:59.684Z,0.50
2023-02-25T11:40:41.894Z,0.38
2023-02-25T11:43:19.534Z,0.45
2023-02-25T11:46:12.179Z,0.52
2023-02-25T11:49:21.008Z,0.32
2023-02-25T11:51:56.548Z,0.57
2023-02-25T11:54:54.264Z,0.70
2023-02-25T11:57:27.126Z,0.50
2023-02-25T12:00:18.621Z,0.45
2023-02-25T12:02:45.247Z,0.65
2023-02-25T12:05:46.038Z,0.55
2023-02-25T12:08:37.321Z,0.60
2023-02-25T12:11:32.998Z,0.52
2023-02-25T12:14:17.720Z,0.70
2023-02-25T12:17:19.549Z,0.63
2023-02-25T12:19:57.689Z,0.65
2023-02-25T12:22:36.748Z,0.52
2023-02-25T12:25:18.591Z,0.35
2023-02-25T12:28:09.315Z,0.60
2023-02-25T12:31:03.824Z,0.60
2023-02-25T12:33:36.349Z,0.88
2023-02-25T12:36:31.797Z,0.63
2023-02-25T12:39:26.693Z,0.55
2023-02-25T12:42:47.643Z,0.50
2023-02-25T12:45:23.262Z,0.50
2023-02-25T12:47:59.965Z,0.60
2023-02-25T12:50:48.574Z,0.50
2023-02-25T12:53:31.205Z,0.40
2023-02-25T12:56:11.034Z,0.60
2023-02-25T12:58:46.124Z,0.45
2023-02-25T13:01:37.421Z,0.45
2023-02-25T13:04:18.793Z,0.40
2023-02-25T13:07:18.717Z,0.50
2023-02-25T13:10:01.240Z,0.63
2023-02-25T13:12:53.665Z,0.40
2023-02-25T13:15:22.696Z,0.57
2023-02-25T13:18:03.847Z,0.50
2023-02-25T13:20:59.460Z,0.60
2023-02-25T13:23:48.737Z,0.50
2023-02-25T13:26:45.466Z,0.60
2023-02-25T13:29:28.370Z,0.82
2023-02-25T13:32:36.432Z,0.60
2023-02-25T13:35:38.646Z,0.55
2023-02-25T13:38:24.192Z,0.55
2023-02-25T13:41:00.610Z,0.70
2023-02-25T13:43:49.063Z,0.60
2023-02-25T13:46:48.324Z,0.70
2023-02-25T13:49:40.298Z,0.80
2023-02-25T13:52:30.205Z,0.65
2023-02-25T13:55:16.080Z,0.80
2023-02-25T13:58:02.748Z,0.60
2023-02-25T14:00:53.547Z,0.70
2023-02-25T14:04:15.252Z,0.80
2023-02-25T14:07:10.442Z,0.50
2023-02-25T14:10:05.062Z,0.90
2023-02-25T14:13:00.476Z,0.52
2023-02-25T14:15:36.267Z,0.68
2023-02-25T14:18:27.883Z,0.75
2023-02-25T14:21:04.455Z,0.57
2023-02-25T14:23:59.596Z,0.50
2023-02-25T14:26:57.776Z,0.70
2023-02-25T14:29:24.358Z,0.70
2023-02-25T14:32:09.185Z,0.50
2023-02-25T14:35:08.648Z,0.73
2023-02-25T14:37:41.905Z,0.70
2023-02-25T14:40:47.996Z,0.77
2023-02-25T14:43:29.756Z,0.75
2023-02-25T14:46:34.045Z,0.80
2023-02-25T14:49:08.089Z,0.60
2023-02-25T14:51:34.716Z,0.88
2023-02-25T14:54:25.681Z,0.50
2023-02-25T14:57:10.899Z,0.47
2023-02-25T14:59:59.031Z,0.90
2023-02-25T15:02:42.034Z,0.80
2023-02-25T15:05:33.648Z,0.80
2023-02-25T15:08:34.106Z,1.00
2023-02-25T15:11:49.124Z,0.60
2023-02-25T15:14:49.333Z,0.90
2023-02-25T15:17:27.877Z,0.70
2023-02-25T15:20:28.814Z,0.70
2023-02-25T15:23:06.871Z,1.10
2023-02-25T15:26:21.540Z,0.45
2023-02-25T15:28:55.509Z,0.77
2023-02-25T15:31:31.777Z,0.52
2023-02-25T15:34:32.823Z,0.70
2023-02-25T15:37:22.276Z,0.70
2023-02-25T15:39:51.591Z,0.60
2023-02-25T15:42:58.501Z,0.60
2023-02-25T15:45:28.361Z,0.73
2023-02-25T15:48:20.796Z,0.60
2023-02-25T15:50:47.434Z,0.60
2023-02-25T15:53:21.048Z,0.70
2023-02-25T15:55:52.816Z,0.55
2023-02-25T15:58:25.692Z,0.80
2023-02-25T16:00:57.140Z,0.88
2023-02-25T16:03:35.880Z,0.60
2023-02-25T16:06:20.116Z,0.55
2023-02-25T16:09:10.445Z,0.80
2023-02-25T16:11:46.590Z,0.90
2023-02-25T16:14:29.078Z,0.80
2023-02-25T16:17:14.652Z,0.68
2023-02-25T16:19:42.139Z,0.80
2023-02-25T16:22:21.945Z,0.65
2023-02-25T16:24:52.201Z,0.60
2023-02-25T16:27:38.465Z,0.80
2023-02-25T16:30:25.205Z,0.57
2023-02-25T16:33:12.758Z,1.77
2023-02-25T16:36:06.812Z,0.93
2023-02-25T16:38:43.653Z,0.80
2023-02-25T16:41:12.932Z,0.50
2023-02-25T16:43:41.964Z,1.03
2023-02-25T16:46:15.424Z,0.90
2023-02-25T16:49:19.418Z,0.50
2023-02-25T16:51:47.470Z,0.80
2023-02-25T16:54:25.044Z,0.80
2023-02-25T16:56:58.099Z,0.60
2023-02-25T16:59:25.211Z,0.80
2023-02-25T17:01:58.586Z,0.77
2023-02-25T17:04:32.946Z,4.20
2023-02-25T17:07:24.387Z,1.80
2023-02-25T17:09:54.317Z,1.00
2023-02-25T17:12:38.651Z,8.30
2023-02-25T17:15:13.789Z,5.20
2023-02-25T17:17:42.886Z,2.40
2023-02-25T17:20:17.408Z,1.67
2023-02-25T17:22:45.648Z,1.40
2023-02-25T17:25:16.126Z,0.97
2023-02-25T17:27:45.474Z,1.60
2023-02-25T17:30:39.437Z,2.70
2023-02-25T17:33:18.188Z,1.60
2023-02-25T17:35:47.896Z,1.90
2023-02-25T17:38:19.698Z,1.53
2023-02-25T17:40:47.522Z,2.47
2023-02-25T17:43:14.155Z,2.30
2023-02-25T17:45:42.844Z,4.73
2023-02-25T17:48:23.078Z,2.70
2023-02-25T17:50:59.420Z,5.20
2023-02-25T17:53:41.135Z,2.10
2023-02-25T17:56:16.785Z,5.23
2023-02-25T17:58:45.022Z,2.00
2023-02-25T18:01:30.959Z,1.70
2023-02-25T18:04:06.704Z,3.57
2023-02-25T18:06:45.236Z,8.37
2023-02-25T18:09:34.828Z,7.30
2023-02-25T18:12:03.482Z,4.50
2023-02-25T18:14:35.067Z,6.87
2023-02-25T18:17:12.904Z,5.00
2023-02-25T18:19:46.060Z,6.37
2023-02-25T18:22:37.560Z,7.17
2023-02-25T18:25:26.815Z,6.57
2023-02-25T18:27:54.637Z,2.00
2023-02-25T18:30:24.386Z,1.40
2023-02-25T18:32:52.004Z,1.80
2023-02-25T18:35:19.104Z,1.80
2023-02-25T18:37:48.636Z,2.27
2023-02-25T18:40:22.224Z,2.73
2023-02-25T18:42:49.043Z,3.00
2023-02-25T18:45:23.198Z,4.23
2023-02-25T18:47:52.346Z,2.37
2023-02-25T18:50:20.818Z,2.03
2023-02-25T18:52:48.368Z,2.20
2023-02-25T18:55:17.876Z,2.20
2023-02-25T18:57:44.717Z,2.47
2023-02-25T19:00:12.826Z,2.60
2023-02-25T19:02:47.000Z,3.07
2023-02-25T19:05:13.626Z,3.03
2023-02-25T19:07:40.451Z,2.83
2023-02-25T19:10:08.170Z,2.73
2023-02-25T19:12:36.107Z,3.23
2023-02-25T19:15:06.979Z,3.13
2023-02-25T19:17:34.107Z,4.13
2023-02-25T19:20:01.270Z,3.80
2023-02-25T19:22:28.519Z,3.50
2023-02-25T19:24:56.359Z,2.80
2023-02-25T19:27:30.548Z,3.60
2023-02-25T19:29:59.610Z,3.60
2023-02-25T19:32:26.875Z,3.10
2023-02-25T19:34:54.446Z,3.80
2023-02-25T19:37:22.148Z,3.53
2023-02-25T19:39:49.276Z,3.63
2023-02-25T19:42:16.218Z,3.70
2023-02-25T19:44:43.287Z,3.23
2023-02-25T19:47:10.281Z,4.43
2023-02-25T19:49:37.243Z,3.70
2023-02-25T19:52:04.197Z,3.90
2023-02-25T19:54:30.874Z,3.87
2023-02-25T19:56:57.500Z,3.40
2023-02-25T19:59:24.215Z,3.67
2023-02-25T20:01:51.007Z,4.20
2023-02-25T20:04:17.659Z,4.00
2023-02-25T20:06:44.379Z,4.20
2023-02-25T20:09:12.005Z,4.67
2023-02-25T20:11:38.787Z,3.60
2023-02-25T20:14:06.592Z,7.50
2023-02-25T20:16:45.755Z,4.50
2023-02-25T20:19:13.029Z,3.50
2023-02-25T20:21:41.770Z,3.33
2023-02-25T20:24:10.915Z,3.70
2023-02-25T20:26:38.081Z,3.07
2023-02-25T20:29:05.437Z,2.77
2023-02-25T20:31:32.273Z,2.57
2023-02-25T20:34:01.025Z,2.33
2023-02-25T20:36:38.543Z,2.30
2023-02-25T20:39:35.176Z,2.50
2023-02-25T20:42:03.515Z,2.03
2023-02-25T20:44:30.932Z,2.20
2023-02-25T20:46:57.838Z,1.47
2023-02-25T20:49:27.583Z,1.60
2023-02-25T20:51:55.739Z,1.33
2023-02-25T20:54:24.232Z,1.40
2023-02-25T20:56:53.598Z,1.20
2023-02-25T20:59:21.232Z,0.80
2023-02-25T21:01:48.350Z,1.20
2023-02-25T21:04:16.509Z,0.77
2023-02-25T21:06:45.931Z,0.90
2023-02-25T21:09:13.885Z,0.60
2023-02-25T21:11:40.848Z,0.70
2023-02-25T21:14:10.224Z,0.90
2023-02-25T21:16:38.714Z,0.73
2023-02-25T21:19:08.341Z,0.80
2023-02-25T21:21:37.483Z,0.63
2023-02-25T21:24:10.330Z,0.57
2023-02-25T21:26:39.763Z,0.70
2023-02-25T21:29:07.343Z,0.40
2023-02-25T21:31:34.556Z,0.77
2023-02-25T21:34:02.151Z,0.60
2023-02-25T21:36:29.706Z,0.67
2023-02-25T21:38:56.400Z,0.60
2023-02-25T21:41:23.595Z,0.80
2023-02-25T21:43:52.162Z,0.50
2023-02-25T21:46:19.447Z,0.50
2023-02-25T21:48:47.382Z,0.80
2023-02-25T21:51:20.120Z,0.50
2023-02-25T21:53:47.164Z,0.40
2023-02-25T21:56:16.265Z,0.70
2023-02-25T21:58:44.558Z,0.60
2023-02-25T22:01:15.687Z,0.63
2023-02-25T22:03:43.391Z,0.60
2023-02-25T22:06:10.963Z,0.90
2023-02-25T22:08:42.013Z,0.80
2023-02-25T22:11:16.999Z,0.80
2023-02-25T22:13:43.759Z,0.60
2023-02-25T22:16:11.269Z,0.70
2023-02-25T22:18:38.543Z,0.87
2023-02-25T22:21:11.768Z,0.73
2023-02-25T22:23:41.050Z,0.70
2023-02-25T22:26:11.055Z,0.70
2023-02-25T22:28:38.204Z,0.97
2023-02-25T22:31:05.459Z,0.80
2023-02-25T22:33:32.928Z,0.57
2023-02-25T22:36:02.034Z,0.80
2023-02-25T22:38:41.330Z,0.77
2023-02-25T22:41:19.979Z,0.80
2023-02-25T22:43:52.546Z,0.80
2023-02-25T22:46:22.203Z,0.90
2023-02-25T22:48:51.000Z,0.80
2023-02-25T22:51:32.492Z,0.90
2023-02-25T22:54:00.152Z,0.90
2023-02-25T22:56:28.194Z,0.90
2023-02-25T22:58:55.364Z,0.77
2023-02-25T23:01:23.872Z,0.90
2023-02-25T23:03:51.622Z,0.70
2023-02-25T23:06:20.743Z,0.80
2023-02-25T23:08:48.855Z,1.07
2023-02-25T23:11:22.461Z,0.90
2023-02-25T23:13:53.015Z,1.30
2023-02-25T23:16:23.033Z,0.77
2023-02-25T23:18:51.797Z,0.90
2023-02-25T23:21:19.920Z,0.70
2023-02-25T23:23:56.314Z,0.70
2023-02-25T23:26:29.413Z,0.73
2023-02-25T23:28:57.849Z,0.80
2023-02-25T23:31:28.106Z,0.73
2023-02-25T23:34:00.143Z,0.80
2023-02-25T23:36:28.128Z,0.87
2023-02-25T23:39:00.330Z,0.57
2023-02-25T23:41:29.069Z,0.77
2023-02-25T23:43:59.329Z,0.70
2023-02-25T23:46:28.214Z,0.90
2023-02-25T23:49:05.650Z,0.70
2023-02-25T23:51:34.074Z,0.70
2023-02-25T23:54:04.069Z,0.80
2023-02-25T23:57:14.821Z,0.60
2023-02-25T23:59:43.733Z,0.70
